createdAt,value
2023-05-23T00:00:07.674Z,34.9286
2023-05-23T00:01:15.562Z,31.7857
2023-05-23T00:02:23.694Z,34.5714
2023-05-23T00:03:31.715Z,34.8571
2023-05-23T00:04:39.889Z,35.3571
2023-05-23T00:05:47.911Z,38.1429
2023-05-23T00:06:56.075Z,37.8571
2023-05-23T00:08:03.752Z,36.3571
2023-05-23T00:09:11.996Z,39.0000
2023-05-23T00:10:19.874Z,44.0000
2023-05-23T00:11:28.308Z,46.8571
2023-05-23T00:12:36.148Z,49.7143
2023-05-23T00:13:44.212Z,47.2143
2023-05-23T00:14:52.235Z,45.1429
2023-05-23T00:16:00.478Z,44.7857
2023-05-23T00:17:08.504Z,42.0000
2023-05-23T00:18:16.465Z,39.5000
2023-05-23T00:19:24.414Z,33.5714
2023-05-23T00:20:32.550Z,31.7857
2023-05-23T00:21:40.714Z,33.2143
2023-05-23T00:22:48.729Z,32.4286
2023-05-23T00:23:56.741Z,31.5714
2023-05-23T00:25:04.920Z,30.4286
2023-05-23T00:26:12.888Z,37.0000
2023-05-23T00:27:20.909Z,35.1429
2023-05-23T00:28:29.020Z,36.2857
2023-05-23T00:29:37.109Z,37.7143
2023-05-23T00:30:45.065Z,35.5714
2023-05-23T00:31:53.311Z,34.7857
2023-05-23T00:33:01.506Z,32.6429
2023-05-23T00:34:09.249Z,30.3571
2023-05-23T00:35:17.398Z,31.1429
2023-05-23T00:36:25.392Z,33.7143
2023-05-23T00:37:33.610Z,29.7143
2023-05-23T00:38:41.731Z,31.7857
2023-05-23T00:39:49.675Z,30.8571
2023-05-23T00:40:57.735Z,29.7143
2023-05-23T00:42:05.727Z,26.0000
2023-05-23T00:43:14.003Z,27.7857
2023-05-23T00:44:22.560Z,31.0000
2023-05-23T00:45:29.993Z,33.3571
2023-05-23T00:46:38.339Z,30.7857
2023-05-23T00:47:46.151Z,31.3571
2023-05-23T00:48:54.192Z,28.3571
2023-05-23T00:50:02.241Z,28.7857
2023-05-23T00:51:10.445Z,24.4286
2023-05-23T00:52:18.410Z,23.9286
2023-05-23T00:53:26.674Z,23.9286
2023-05-23T00:54:34.460Z,24.1429
2023-05-23T00:55:42.689Z,22.9286
2023-05-23T00:56:50.641Z,17.2143
2023-05-23T00:57:58.692Z,15.8571
2023-05-23T00:59:06.623Z,15.4286
2023-05-23T01:00:14.775Z,13.3571
2023-05-23T01:01:23.044Z,10.4286
2023-05-23T01:02:30.977Z,9.4286
2023-05-23T01:03:39.153Z,9.1429
2023-05-23T01:04:46.882Z,9.8571
2023-05-23T01:05:55.187Z,12.8571
2023-05-23T01:07:03.216Z,11.1429
2023-05-23T01:08:11.243Z,9.2143
2023-05-23T01:09:19.300Z,7.2143
2023-05-23T01:10:27.451Z,5.5714
2023-05-23T01:11:35.438Z,10.2857
2023-05-23T01:12:43.486Z,9.6429
2023-05-23T01:13:51.503Z,10.2143
2023-05-23T01:14:59.567Z,11.0000
2023-05-23T01:16:07.655Z,20.4286
2023-05-23T01:17:15.649Z,20.0714
2023-05-23T01:18:23.766Z,17.6429
2023-05-23T01:19:31.683Z,17.1429
2023-05-23T01:20:39.855Z,18.1429
2023-05-23T01:21:47.936Z,16.4286
2023-05-23T01:22:55.895Z,15.4286
2023-05-23T01:24:04.051Z,10.5714
2023-05-23T01:25:12.057Z,7.2857
2023-05-23T01:26:20.323Z,7.8571
2023-05-23T01:27:28.222Z,3.9286
2023-05-23T01:28:36.362Z,9.0000
2023-05-23T01:29:44.391Z,10.0000
2023-05-23T01:30:52.442Z,7.2143
2023-05-23T01:32:00.497Z,7.8571
2023-05-23T01:33:08.592Z,10.0000
2023-05-23T01:34:16.478Z,6.9286
2023-05-23T01:35:24.688Z,7.2857
2023-05-23T01:36:32.715Z,7.6429
2023-05-23T01:37:40.761Z,6.3571
2023-05-23T01:38:49.036Z,9.0000
2023-05-23T01:39:56.774Z,8.9286
2023-05-23T01:41:05.046Z,8.4286
2023-05-23T01:42:13.072Z,6.5000
2023-05-23T01:43:21.051Z,5.5714
2023-05-23T01:44:29.268Z,4.0000
2023-05-23T01:45:37.207Z,1.4286
2023-05-23T01:46:45.240Z,2.8571
2023-05-23T01:47:53.379Z,7.2143
2023-05-23T01:49:01.522Z,10.9286
2023-05-23T01:50:09.392Z,4.5000
2023-05-23T01:51:17.354Z,7.1429
2023-05-23T01:52:25.534Z,11.3571
2023-05-23T01:53:33.603Z,11.2143
2023-05-23T01:54:41.941Z,11.4286
2023-05-23T01:55:49.724Z,13.2857
2023-05-23T01:56:57.699Z,16.0000
2023-05-23T01:58:05.798Z,13.5000
2023-05-23T01:59:13.864Z,13.5714
2023-05-23T02:00:22.005Z,10.7857
2023-05-23T02:01:30.048Z,10.7857
2023-05-23T02:02:38.230Z,15.2857
2023-05-23T02:03:46.136Z,12.8571
2023-05-23T02:04:54.248Z,12.7143
2023-05-23T02:06:02.310Z,13.2857
2023-05-23T02:07:10.287Z,13.4286
2023-05-23T02:08:18.355Z,12.7143
2023-05-23T02:09:26.523Z,13.2857
2023-05-23T02:10:34.571Z,17.8571
2023-05-23T02:11:42.546Z,18.7857
2023-05-23T02:12:50.714Z,16.9286
2023-05-23T02:13:58.654Z,17.4286
2023-05-23T02:15:06.712Z,22.2143
2023-05-23T02:16:14.969Z,17.2143
2023-05-23T02:17:22.897Z,14.2143
2023-05-23T02:18:30.915Z,14.6429
2023-05-23T02:19:38.906Z,14.4286
2023-05-23T02:20:47.030Z,11.5714
2023-05-23T02:21:55.136Z,13.7143
2023-05-23T02:23:03.157Z,12.8571
2023-05-23T02:24:11.453Z,12.0000
2023-05-23T02:25:19.326Z,10.2857
2023-05-23T02:26:27.367Z,9.9286
2023-05-23T02:27:35.419Z,17.0000
2023-05-23T02:28:43.391Z,17.3571
2023-05-23T02:29:51.506Z,22.6429
2023-05-23T02:30:59.806Z,31.1429
2023-05-23T02:32:07.663Z,32.1429
2023-05-23T02:33:15.764Z,31.3571
2023-05-23T02:34:23.889Z,33.7857
2023-05-23T02:35:31.822Z,29.2857
2023-05-23T02:36:39.925Z,22.9286
2023-05-23T02:37:47.921Z,19.5000
2023-05-23T02:38:56.211Z,18.7143
2023-05-23T02:40:03.924Z,14.2857
2023-05-23T02:41:12.187Z,14.2857
2023-05-23T02:42:20.208Z,11.8571
2023-05-23T02:43:28.091Z,12.0714
2023-05-23T02:44:36.372Z,11.9286
2023-05-23T02:45:44.389Z,11.3571
2023-05-23T02:46:52.629Z,10.1429
2023-05-23T02:48:00.458Z,10.2143
2023-05-23T02:49:08.546Z,7.6429
2023-05-23T02:50:16.552Z,7.8571
2023-05-23T02:51:24.531Z,8.5000
2023-05-23T02:52:32.722Z,15.2857
2023-05-23T02:53:40.902Z,13.6429
2023-05-23T02:54:48.664Z,13.0000
2023-05-23T02:55:56.867Z,12.2857
2023-05-23T02:57:04.969Z,9.2143
2023-05-23T02:58:12.969Z,12.8571
2023-05-23T02:59:21.050Z,17.5714
2023-05-23T03:00:29.155Z,17.9286
2023-05-23T03:01:37.138Z,15.0714
2023-05-23T03:02:45.472Z,14.4286
2023-05-23T03:03:53.256Z,18.5000
2023-05-23T03:05:01.308Z,23.7143
2023-05-23T03:06:09.256Z,21.6429
2023-05-23T03:07:27.486Z,21.0000
2023-05-23T03:08:30.351Z,16.9286
2023-05-23T03:09:38.394Z,18.0000
2023-05-23T03:10:46.464Z,15.9286
2023-05-23T03:11:54.643Z,17.9286
2023-05-23T03:13:02.635Z,15.5714
2023-05-23T03:14:10.634Z,19.9286
2023-05-23T03:15:18.712Z,19.5000
2023-05-23T03:16:26.862Z,24.2143
2023-05-23T03:17:34.697Z,27.3571
2023-05-23T03:18:42.925Z,28.4286
2023-05-23T03:19:50.955Z,30.5000
2023-05-23T03:20:59.009Z,33.5000
2023-05-23T03:22:07.207Z,32.5000
2023-05-23T03:23:15.146Z,37.2143
2023-05-23T03:24:23.185Z,40.7857
2023-05-23T03:25:31.263Z,47.0000
2023-05-23T03:26:39.285Z,50.6429
2023-05-23T03:27:47.321Z,48.0714
2023-05-23T03:28:55.463Z,49.2857
2023-05-23T03:30:03.704Z,51.2143
2023-05-23T03:31:11.601Z,55.5000
2023-05-23T03:32:19.660Z,56.0714
2023-05-23T03:33:27.631Z,56.4286
2023-05-23T03:34:35.714Z,52.3571
2023-05-23T03:35:43.734Z,49.7143
2023-05-23T03:36:51.808Z,50.0714
2023-05-23T03:37:59.701Z,56.9286
2023-05-23T03:39:07.968Z,54.7857
2023-05-23T03:40:16.019Z,58.6429
2023-05-23T03:41:24.022Z,62.2857
2023-05-23T03:42:32.159Z,59.9286
2023-05-23T03:43:40.023Z,60.5714
2023-05-23T03:44:48.447Z,62.7143
2023-05-23T03:45:56.369Z,65.2857
2023-05-23T03:47:04.366Z,69.1429
2023-05-23T03:48:12.474Z,66.7143
2023-05-23T03:49:20.289Z,61.5714
2023-05-23T03:50:28.731Z,60.7857
2023-05-23T03:51:36.551Z,56.5714
2023-05-23T03:52:44.491Z,54.9286
2023-05-23T03:53:52.684Z,54.2143
2023-05-23T03:55:00.632Z,56.0714
2023-05-23T03:56:08.777Z,66.5000
2023-05-23T03:57:16.851Z,65.7857
2023-05-23T03:58:24.757Z,69.3571
2023-05-23T03:59:32.965Z,63.6429
2023-05-23T04:00:41.356Z,60.5000
2023-05-23T04:01:49.078Z,61.0000
2023-05-23T04:02:57.198Z,62.9286
2023-05-23T04:04:05.377Z,59.3571
2023-05-23T04:05:13.482Z,59.3571
2023-05-23T04:06:21.309Z,57.8571
2023-05-23T04:07:29.409Z,58.1429
2023-05-23T04:08:37.515Z,60.1429
2023-05-23T04:09:45.681Z,63.4286
2023-05-23T04:10:53.564Z,64.6429
2023-05-23T04:12:01.608Z,70.9286
2023-05-23T04:13:09.700Z,78.7857
2023-05-23T04:14:18.027Z,82.6429
2023-05-23T04:15:25.942Z,90.4286
2023-05-23T04:16:33.949Z,93.6429
2023-05-23T04:17:41.917Z,95.5000
2023-05-23T04:18:50.106Z,94.2143
2023-05-23T04:19:58.091Z,95.8571
2023-05-23T04:21:06.090Z,97.4286
2023-05-23T04:22:14.107Z,96.6429
2023-05-23T04:23:22.215Z,101.7857
2023-05-23T04:24:30.254Z,103.5714
2023-05-23T04:25:38.396Z,103.3571
2023-05-23T04:26:46.598Z,108.1429
2023-05-23T04:27:54.418Z,107.0000
2023-05-23T04:29:02.581Z,102.8571
2023-05-23T04:30:10.517Z,101.2857
2023-05-23T04:31:18.683Z,103.7857
2023-05-23T04:32:26.554Z,101.3571
2023-05-23T04:33:35.140Z,99.2143
2023-05-23T04:34:42.762Z,97.4286
2023-05-23T04:35:50.965Z,98.2143
2023-05-23T04:36:58.971Z,98.7143
2023-05-23T04:38:06.960Z,97.7857
2023-05-23T04:39:14.938Z,101.4286
2023-05-23T04:40:23.114Z,103.2143
2023-05-23T04:41:31.287Z,108.7857
2023-05-23T04:42:39.228Z,122.7857
2023-05-23T04:43:47.286Z,131.3571
2023-05-23T04:44:55.216Z,141.1429
2023-05-23T04:46:03.414Z,141.3571
2023-05-23T04:47:11.563Z,144.5714
2023-05-23T04:48:19.717Z,144.2143
2023-05-23T04:49:27.578Z,141.5714
2023-05-23T04:50:35.496Z,144.0714
2023-05-23T04:51:43.836Z,138.4286
2023-05-23T04:52:51.761Z,132.5000
2023-05-23T04:53:59.792Z,127.2143
2023-05-23T04:55:07.908Z,128.2857
2023-05-23T04:56:15.827Z,128.2857
2023-05-23T04:57:23.996Z,133.2143
2023-05-23T04:58:31.918Z,124.5714
2023-05-23T04:59:40.151Z,123.3571
2023-05-23T05:00:48.224Z,122.5000
2023-05-23T05:01:56.297Z,126.4286
2023-05-23T05:03:04.313Z,127.8571
2023-05-23T05:04:12.402Z,128.0714
2023-05-23T05:05:20.408Z,124.0714
2023-05-23T05:06:28.557Z,125.1429
2023-05-23T05:07:36.634Z,122.7857
2023-05-23T05:08:44.583Z,121.5000
2023-05-23T05:09:52.709Z,123.7857
2023-05-23T05:11:00.612Z,123.7857
2023-05-23T05:12:08.830Z,124.2857
2023-05-23T05:13:16.882Z,123.2857
2023-05-23T05:14:24.874Z,122.1429
2023-05-23T05:15:32.929Z,122.6429
2023-05-23T05:16:40.912Z,114.7857
2023-05-23T05:17:49.960Z,115.7857
2023-05-23T05:18:57.009Z,114.6429
2023-05-23T05:20:05.197Z,119.9286
2023-05-23T05:21:13.365Z,120.9286
2023-05-23T05:22:21.300Z,120.2857
2023-05-23T05:23:29.421Z,121.6429
2023-05-23T05:24:37.259Z,121.2857
2023-05-23T05:25:45.436Z,131.9286
2023-05-23T05:26:53.500Z,140.5714
2023-05-23T05:28:01.478Z,148.5000
2023-05-23T05:29:09.968Z,152.0714
2023-05-23T05:30:17.551Z,154.1429
2023-05-23T05:31:25.816Z,162.9286
2023-05-23T05:32:33.890Z,159.1429
2023-05-23T05:33:41.842Z,163.5714
2023-05-23T05:34:49.980Z,164.8571
2023-05-23T05:35:57.946Z,168.7143
2023-05-23T05:37:06.045Z,176.7857
2023-05-23T05:38:14.534Z,174.0714
2023-05-23T05:39:22.357Z,172.0714
2023-05-23T05:40:30.188Z,169.3571
2023-05-23T05:41:38.279Z,165.7857
2023-05-23T05:42:46.381Z,161.8571
2023-05-23T05:43:54.384Z,160.3571
2023-05-23T05:45:02.318Z,164.5000
2023-05-23T05:46:10.535Z,168.6429
2023-05-23T05:47:18.722Z,164.5000
2023-05-23T05:48:26.722Z,165.2857
2023-05-23T05:49:34.679Z,165.1429
2023-05-23T05:50:42.727Z,164.6429
2023-05-23T05:51:50.827Z,165.8571
2023-05-23T05:52:58.887Z,161.2857
2023-05-23T05:54:06.918Z,161.4286
2023-05-23T05:55:15.016Z,157.9286
2023-05-23T05:56:23.145Z,155.0000
2023-05-23T05:57:31.304Z,150.2857
2023-05-23T05:58:39.146Z,143.5000
2023-05-23T05:59:47.049Z,144.2857
2023-05-23T06:00:55.236Z,144.8571
2023-05-23T06:02:03.172Z,150.7143
2023-05-23T06:03:11.513Z,148.2143
2023-05-23T06:04:19.476Z,144.0714
2023-05-23T06:05:27.481Z,144.2857
2023-05-23T06:06:35.732Z,145.9286
2023-05-23T06:07:43.572Z,148.2857
2023-05-23T06:08:51.637Z,154.3571
2023-05-23T06:09:59.808Z,147.1429
2023-05-23T06:11:07.870Z,147.2857
2023-05-23T06:12:15.791Z,147.5000
2023-05-23T06:13:23.941Z,149.3571
2023-05-23T06:14:32.010Z,158.1429
2023-05-23T06:15:39.983Z,160.2857
2023-05-23T06:16:48.131Z,154.3571
2023-05-23T06:17:56.259Z,149.2857
2023-05-23T06:19:04.248Z,147.2143
2023-05-23T06:20:12.248Z,138.5000
2023-05-23T06:21:20.297Z,143.2857
2023-05-23T06:22:28.169Z,146.0000
2023-05-23T06:23:36.449Z,150.8571
2023-05-23T06:24:44.460Z,149.4286
2023-05-23T06:25:52.628Z,156.6429
2023-05-23T06:27:00.628Z,164.3571
2023-05-23T06:28:08.631Z,165.5714
2023-05-23T06:29:16.725Z,165.2143
2023-05-23T06:30:24.761Z,161.0714
2023-05-23T06:31:32.818Z,164.4286
2023-05-23T06:32:40.953Z,166.6429
2023-05-23T06:33:48.828Z,170.8571
2023-05-23T06:34:57.026Z,174.2857
2023-05-23T06:36:05.048Z,176.8571
2023-05-23T06:37:13.103Z,170.5000
2023-05-23T06:38:21.189Z,168.4286
2023-05-23T06:39:29.278Z,170.7143
2023-05-23T06:40:37.266Z,170.7143
2023-05-23T06:41:45.351Z,174.3571
2023-05-23T06:42:53.428Z,176.0000
2023-05-23T06:44:01.467Z,176.9286
2023-05-23T06:45:09.534Z,176.3571
2023-05-23T06:46:17.490Z,171.5714
2023-05-23T06:47:25.867Z,165.6429
2023-05-23T06:48:33.571Z,159.9286
2023-05-23T06:49:41.873Z,155.0000
2023-05-23T06:50:49.823Z,155.2143
2023-05-23T06:51:57.913Z,156.2857
2023-05-23T06:53:06.047Z,154.5714
2023-05-23T06:54:13.892Z,150.7857
2023-05-23T06:55:22.086Z,145.7857
2023-05-23T06:56:30.133Z,143.0000
2023-05-23T06:57:38.170Z,138.7143
2023-05-23T06:58:47.249Z,135.7857
2023-05-23T06:59:54.201Z,132.5000
2023-05-23T07:01:02.397Z,130.7857
2023-05-23T07:02:10.435Z,130.6429
2023-05-23T07:03:18.522Z,128.9286
2023-05-23T07:04:26.560Z,133.8571
2023-05-23T07:05:34.708Z,130.7143
2023-05-23T07:06:42.847Z,134.1429
2023-05-23T07:07:50.740Z,133.6429
2023-05-23T07:08:58.761Z,134.1429
2023-05-23T07:10:06.876Z,131.5714
2023-05-23T07:11:15.018Z,136.8571
2023-05-23T07:12:23.000Z,140.4286
2023-05-23T07:13:31.075Z,138.7143
2023-05-23T07:14:39.248Z,137.2143
2023-05-23T07:15:47.329Z,140.7143
2023-05-23T07:16:55.310Z,140.5714
2023-05-23T07:18:03.289Z,143.1429
2023-05-23T07:19:11.401Z,153.2857
2023-05-23T07:20:19.401Z,155.4286
2023-05-23T07:21:27.512Z,157.1429
2023-05-23T07:22:35.381Z,159.1429
2023-05-23T07:23:43.456Z,161.5714
2023-05-23T07:24:51.629Z,163.2143
2023-05-23T07:26:02.963Z,160.9286
2023-05-23T07:27:12.631Z,156.6000
2023-05-23T07:28:20.675Z,158.8571
2023-05-23T07:29:28.767Z,157.5000
2023-05-23T07:30:36.873Z,159.7857
2023-05-23T07:31:44.949Z,156.7143
2023-05-23T07:32:53.077Z,159.3571
2023-05-23T07:34:01.018Z,164.3571
2023-05-23T07:35:09.041Z,167.9286
2023-05-23T07:36:17.141Z,172.5000
2023-05-23T07:37:25.202Z,166.1429
2023-05-23T07:38:33.101Z,168.2857
2023-05-23T07:39:41.440Z,164.0000
2023-05-23T07:40:58.844Z,166.0714
2023-05-23T07:42:02.470Z,164.3571
2023-05-23T07:43:10.335Z,160.8571
2023-05-23T07:44:18.388Z,160.5000
2023-05-23T07:45:26.429Z,158.8571
2023-05-23T07:46:34.389Z,155.9286
2023-05-23T07:47:42.828Z,155.2857
2023-05-23T07:48:50.635Z,150.2143
2023-05-23T07:49:58.646Z,154.7143
2023-05-23T07:51:06.816Z,150.3571
2023-05-23T07:52:14.919Z,145.9286
2023-05-23T07:53:22.930Z,149.2143
2023-05-23T07:54:30.938Z,147.4286
2023-05-23T07:55:38.989Z,150.2143
2023-05-23T07:56:47.175Z,148.1429
2023-05-23T07:57:55.103Z,147.1429
2023-05-23T07:59:03.185Z,146.7143
2023-05-23T08:00:11.306Z,148.4286
2023-05-23T08:01:19.325Z,148.5000
2023-05-23T08:02:27.420Z,143.9286
2023-05-23T08:03:35.374Z,146.9286
2023-05-23T08:04:43.492Z,148.6429
2023-05-23T08:05:51.542Z,148.2857
2023-05-23T08:07:05.485Z,147.7143
2023-05-23T08:08:12.546Z,150.7333
2023-05-23T08:09:20.754Z,152.2143
2023-05-23T08:10:28.479Z,150.3571
2023-05-23T08:11:36.798Z,149.4286
2023-05-23T08:12:44.713Z,146.5714
2023-05-23T08:13:52.976Z,147.2143
2023-05-23T08:15:00.863Z,145.2857
2023-05-23T08:16:08.944Z,146.1429
2023-05-23T08:17:17.050Z,148.1429
2023-05-23T08:18:25.045Z,149.8571
2023-05-23T08:19:33.290Z,152.8571
2023-05-23T08:20:41.390Z,155.3571
2023-05-23T08:21:49.070Z,150.7857
2023-05-23T08:22:57.534Z,150.2143
2023-05-23T08:24:05.343Z,151.5714
2023-05-23T08:25:13.375Z,149.0000
2023-05-23T08:26:21.490Z,148.7857
2023-05-23T08:27:29.379Z,148.1429
2023-05-23T08:28:37.581Z,151.4286
2023-05-23T08:29:45.668Z,152.9286
2023-05-23T08:30:53.714Z,156.3571
2023-05-23T08:32:01.830Z,161.3571
2023-05-23T08:33:09.691Z,158.9286
2023-05-23T08:34:17.893Z,163.5714
2023-05-23T08:35:25.939Z,162.6429
2023-05-23T08:36:33.986Z,166.6429
2023-05-23T08:37:42.238Z,166.8571
2023-05-23T08:38:50.010Z,167.5000
2023-05-23T08:39:58.170Z,178.5714
2023-05-23T08:41:06.196Z,179.9286
2023-05-23T08:42:14.614Z,184.0000
2023-05-23T08:43:22.390Z,187.5000
2023-05-23T08:44:30.476Z,196.2857
2023-05-23T08:45:38.509Z,200.6429
2023-05-23T08:46:46.704Z,204.7143
2023-05-23T08:47:54.750Z,200.0714
2023-05-23T08:49:02.785Z,196.5000
2023-05-23T08:50:10.987Z,196.9286
2023-05-23T08:51:18.907Z,193.0000
2023-05-23T08:52:27.009Z,194.3571
2023-05-23T08:53:34.824Z,190.0714
2023-05-23T08:54:43.040Z,192.3571
2023-05-23T08:55:51.113Z,189.0000
2023-05-23T08:56:59.008Z,188.7143
2023-05-23T08:58:07.215Z,190.0714
2023-05-23T08:59:15.140Z,193.8571
2023-05-23T09:00:23.435Z,194.0000
2023-05-23T09:01:31.642Z,193.0000
2023-05-23T09:02:39.494Z,192.2143
2023-05-23T09:03:47.486Z,192.6429
2023-05-23T09:04:55.431Z,190.7143
2023-05-23T09:06:03.733Z,190.7143
2023-05-23T09:07:11.929Z,197.0000
2023-05-23T09:08:19.752Z,202.9286
2023-05-23T09:09:27.794Z,205.0714
2023-05-23T09:10:35.924Z,202.6429
2023-05-23T09:11:43.936Z,202.5714
2023-05-23T09:12:51.975Z,210.1429
2023-05-23T09:13:59.934Z,210.8571
2023-05-23T09:15:08.107Z,205.6429
2023-05-23T09:16:16.052Z,207.1429
2023-05-23T09:17:24.383Z,213.4286
2023-05-23T09:18:32.332Z,211.9286
2023-05-23T09:19:40.413Z,212.2143
2023-05-23T09:20:48.429Z,212.1429
2023-05-23T09:21:56.487Z,212.0714
2023-05-23T09:23:04.552Z,212.3571
2023-05-23T09:24:12.847Z,212.9286
2023-05-23T09:25:20.507Z,210.1429
2023-05-23T09:26:28.750Z,210.4286
2023-05-23T09:27:36.770Z,208.7857
2023-05-23T09:28:44.756Z,204.5714
2023-05-23T09:29:52.902Z,203.4286
2023-05-23T09:31:01.068Z,193.5714
2023-05-23T09:32:09.300Z,192.5000
2023-05-23T09:33:17.183Z,196.0000
2023-05-23T09:34:25.142Z,196.7143
2023-05-23T09:35:33.177Z,195.3571
2023-05-23T09:36:41.157Z,205.3571
2023-05-23T09:37:49.333Z,205.6429
2023-05-23T09:38:57.415Z,206.2857
2023-05-23T09:40:05.564Z,205.7857
2023-05-23T09:41:13.496Z,205.9286
2023-05-23T09:42:21.437Z,199.5000
2023-05-23T09:43:29.747Z,198.2143
2023-05-23T09:44:37.698Z,197.9286
2023-05-23T09:45:45.796Z,194.5714
2023-05-23T09:46:53.963Z,193.5000
2023-05-23T09:48:01.895Z,197.7143
2023-05-23T09:49:10.088Z,195.8571
2023-05-23T09:50:18.048Z,199.5000
2023-05-23T09:51:26.046Z,199.1429
2023-05-23T09:52:34.076Z,200.7857
2023-05-23T09:53:42.273Z,198.9286
2023-05-23T09:54:50.096Z,198.1429
2023-05-23T09:55:58.259Z,197.5714
2023-05-23T09:57:07.181Z,199.5000
2023-05-23T09:58:14.427Z,208.5000
2023-05-23T09:59:22.517Z,216.7143
2023-05-23T10:00:30.391Z,234.0000
2023-05-23T10:01:38.812Z,252.0714
2023-05-23T10:02:46.607Z,274.2143
2023-05-23T10:03:55.567Z,293.3571
2023-05-23T10:05:02.807Z,315.3571
2023-05-23T10:06:10.701Z,324.7143
2023-05-23T10:07:18.908Z,330.0000
2023-05-23T10:08:26.807Z,349.1429
2023-05-23T10:09:35.264Z,372.0714
2023-05-23T10:10:43.245Z,394.5000
2023-05-23T10:11:51.147Z,407.4286
2023-05-23T10:12:59.254Z,424.3571
2023-05-23T10:14:07.237Z,437.5000
2023-05-23T10:15:15.397Z,453.3571
2023-05-23T10:16:23.424Z,445.6429
2023-05-23T10:17:31.488Z,446.3571
2023-05-23T10:18:39.729Z,434.6429
2023-05-23T10:19:47.601Z,436.8571
2023-05-23T10:20:55.806Z,435.1429
2023-05-23T10:22:03.752Z,444.3571
2023-05-23T10:23:11.907Z,458.5714
2023-05-23T10:24:19.904Z,472.2143
2023-05-23T10:25:27.932Z,489.1429
2023-05-23T10:26:35.909Z,510.2143
2023-05-23T10:27:44.311Z,525.0000
2023-05-23T10:28:52.235Z,535.2143
2023-05-23T10:30:00.221Z,543.7143
2023-05-23T10:31:08.325Z,553.2143
2023-05-23T10:32:16.404Z,551.9286
2023-05-23T10:33:24.379Z,545.8571
2023-05-23T10:34:32.355Z,547.7143
2023-05-23T10:35:40.578Z,554.2857
2023-05-23T10:36:48.631Z,558.7143
2023-05-23T10:37:56.519Z,562.0000
2023-05-23T10:39:04.716Z,570.6429
2023-05-23T10:40:12.659Z,565.8571
2023-05-23T10:41:20.833Z,565.7857
2023-05-23T10:42:28.971Z,548.4286
2023-05-23T10:43:36.864Z,510.3571
2023-05-23T10:44:45.132Z,472.9286
2023-05-23T10:45:53.002Z,447.7143
2023-05-23T10:47:01.273Z,416.3571
2023-05-23T10:48:09.283Z,384.7857
2023-05-23T10:49:17.300Z,354.9286
2023-05-23T10:50:25.371Z,335.8571
2023-05-23T10:51:33.454Z,317.7857
2023-05-23T10:52:41.554Z,309.7857
2023-05-23T10:53:49.579Z,310.9286
2023-05-23T10:54:57.676Z,301.3571
2023-05-23T10:56:05.747Z,289.3571
2023-05-23T10:57:13.760Z,275.2857
2023-05-23T10:58:21.762Z,267.6429
2023-05-23T10:59:29.964Z,263.2143
2023-05-23T11:00:37.987Z,258.0000
2023-05-23T11:01:46.006Z,252.1429
2023-05-23T11:02:54.155Z,247.0714
2023-05-23T11:04:02.306Z,244.7143
2023-05-23T11:05:10.194Z,259.4286
2023-05-23T11:06:18.254Z,284.2143
2023-05-23T11:07:26.499Z,307.5714
2023-05-23T11:08:46.715Z,324.0000
2023-05-23T11:09:47.277Z,345.7143
2023-05-23T11:10:55.330Z,366.3571
2023-05-23T11:12:03.439Z,385.8571
2023-05-23T11:13:11.634Z,390.2143
2023-05-23T11:14:19.845Z,393.0000
2023-05-23T11:15:27.584Z,393.0714
2023-05-23T11:16:35.669Z,389.7143
2023-05-23T11:17:43.917Z,374.3571
2023-05-23T11:18:51.747Z,358.5000
2023-05-23T11:19:59.889Z,350.7857
2023-05-23T11:21:07.936Z,343.2857
2023-05-23T11:22:16.061Z,326.3571
2023-05-23T11:23:24.083Z,327.2143
2023-05-23T11:24:32.205Z,321.6429
2023-05-23T11:25:40.290Z,307.0714
2023-05-23T11:26:48.179Z,296.7143
2023-05-23T11:27:56.248Z,284.3571
2023-05-23T11:29:04.471Z,263.3571
2023-05-23T11:30:12.716Z,255.2143
2023-05-23T11:31:20.619Z,248.7857
2023-05-23T11:32:28.787Z,261.5714
2023-05-23T11:33:36.699Z,283.3571
2023-05-23T11:34:44.815Z,281.3571
2023-05-23T11:35:52.698Z,282.5714
2023-05-23T11:37:00.844Z,288.1429
2023-05-23T11:38:09.059Z,286.5714
2023-05-23T11:39:17.000Z,288.5000
2023-05-23T11:40:25.120Z,282.0714
2023-05-23T11:41:33.170Z,278.6429
2023-05-23T11:42:41.217Z,277.5000
2023-05-23T11:43:49.246Z,276.7143
2023-05-23T11:44:57.463Z,274.1429
2023-05-23T11:46:05.467Z,275.7143
2023-05-23T11:47:13.448Z,272.0714
2023-05-23T11:48:21.512Z,272.4286
2023-05-23T11:49:29.717Z,269.6429
2023-05-23T11:50:37.559Z,268.0000
2023-05-23T11:51:45.740Z,260.9286
2023-05-23T11:52:53.809Z,261.0714
2023-05-23T11:54:01.926Z,251.9286
2023-05-23T11:55:09.801Z,246.7857
2023-05-23T11:56:18.101Z,243.0714
2023-05-23T11:57:26.140Z,237.5000
2023-05-23T11:58:34.149Z,233.8571
2023-05-23T11:59:42.261Z,228.5714
2023-05-23T12:00:50.798Z,225.4286
2023-05-23T12:01:58.341Z,216.1429
2023-05-23T12:03:06.483Z,209.5000
2023-05-23T12:04:14.514Z,207.1429
2023-05-23T12:05:22.618Z,205.2857
2023-05-23T12:06:30.606Z,206.1429
2023-05-23T12:07:38.651Z,204.2143
2023-05-23T12:08:46.702Z,206.0714
2023-05-23T12:09:54.800Z,205.0714
2023-05-23T12:11:02.904Z,201.8571
2023-05-23T12:12:11.039Z,206.7857
2023-05-23T12:13:18.935Z,208.2143
2023-05-23T12:14:27.207Z,215.1429
2023-05-23T12:15:35.080Z,221.8571
2023-05-23T12:16:43.274Z,228.0714
2023-05-23T12:17:51.234Z,238.4286
2023-05-23T12:18:59.229Z,244.5000
2023-05-23T12:20:07.352Z,249.7857
2023-05-23T12:21:15.384Z,245.7143
2023-05-23T12:22:23.358Z,243.4286
2023-05-23T12:23:34.503Z,241.0714
2023-05-23T12:24:44.304Z,240.6000
2023-05-23T12:25:52.562Z,237.6429
2023-05-23T12:27:00.556Z,235.7143
2023-05-23T12:28:08.601Z,232.0000
2023-05-23T12:29:16.559Z,230.9286
2023-05-23T12:30:24.680Z,224.1429
2023-05-23T12:31:32.986Z,223.3571
2023-05-23T12:32:41.191Z,221.0000
2023-05-23T12:33:49.792Z,217.2857
2023-05-23T12:34:57.122Z,218.3571
2023-05-23T12:36:05.299Z,221.0000
2023-05-23T12:37:19.428Z,218.0714
2023-05-23T12:38:26.089Z,219.1429
2023-05-23T12:39:34.003Z,218.9286
2023-05-23T12:40:42.160Z,217.7857
2023-05-23T12:41:50.277Z,213.0000
2023-05-23T12:42:58.165Z,215.3571
2023-05-23T12:44:06.358Z,212.0714
2023-05-23T12:45:14.639Z,214.2857
2023-05-23T12:46:22.745Z,213.7857
2023-05-23T12:47:30.671Z,221.7143
2023-05-23T12:48:38.565Z,237.7143
2023-05-23T12:49:46.668Z,259.3571
2023-05-23T12:50:54.644Z,291.1429
2023-05-23T12:52:02.778Z,318.2143
2023-05-23T12:53:10.958Z,345.2143
2023-05-23T12:54:19.089Z,360.6429
2023-05-23T12:55:27.029Z,366.0714
2023-05-23T12:56:35.048Z,355.3571
2023-05-23T12:57:43.193Z,344.4286
2023-05-23T12:58:51.321Z,325.8571
2023-05-23T12:59:59.337Z,315.2857
2023-05-23T13:01:07.430Z,309.2857
2023-05-23T13:02:15.506Z,308.3571
2023-05-23T13:03:23.760Z,307.5714
2023-05-23T13:04:32.615Z,310.0714
2023-05-23T13:05:40.235Z,307.7857
2023-05-23T13:06:47.732Z,309.0714
2023-05-23T13:07:55.766Z,309.2857
2023-05-23T13:09:03.707Z,325.0714
2023-05-23T13:10:12.028Z,335.2143
2023-05-23T13:11:19.890Z,338.2857
2023-05-23T13:12:28.106Z,331.6429
2023-05-23T13:13:36.237Z,328.7857
2023-05-23T13:14:44.255Z,320.0000
2023-05-23T13:15:52.323Z,317.8571
2023-05-23T13:17:00.745Z,311.2143
2023-05-23T13:18:08.443Z,300.0714
2023-05-23T13:19:16.482Z,295.4286
2023-05-23T13:20:24.594Z,291.4286
2023-05-23T13:21:32.589Z,290.0714
2023-05-23T13:22:40.508Z,289.2857
2023-05-23T13:23:48.845Z,280.8571
2023-05-23T13:24:56.811Z,269.7857
2023-05-23T13:26:04.875Z,259.7857
2023-05-23T13:27:12.999Z,254.5714
2023-05-23T13:28:20.961Z,249.1429